Keulen, Duitsland

4:26 PM CEST op 01 april 2015 (GMT +0200)
near Airport Cologne/Bonn | | Change Station
CLOSE
Current Station
Persoonlijk weerstation
Location: Köln, NORDRHEIN-WESTFALEN
Geometrische hoogte: 180 ft
Nabije weerstations

Hoogte 180 ft 50.88 °N, 7.10 °E | Updated 1 minute ago

Scattered Clouds
Licht bewolkt
49.3 °F
Voelt als 49 °F
N
3.0
Wind Variabel Wind van NNW
Gusts 15.0 mijl/u

Vandaag
Hoog -- | Laag -- °F
--% Kans op neerslag
Gisteren
Hoog -- | Laag -- °F
Precip. -- inches
7:08 AM 8:03 PM
Wassende maan, 93% visible
Druk 30.06 inches
Zicht 6.2 mijlen
Wolken Gering 1800 ft
Licht bewolkt 3400 ft
Gevoelstemperatuur 49 °F
Dauwpunt 32 °F
Vochtigheid 50%
Neerslag 0.09 inches
Dikte sneeuw Niet beschikbaar.
UV 1.0 van de 12
Pollen Niet beschikbaar.
Luchtkwaliteit Niet beschikbaar.
Flu Activity Niet beschikbaar.
METAR EDDK 011420Z 29025G35KT 9999 VCSH FEW018 SCT034CB 07/M01 Q1018 NOSIG

More Conditions Fewer Conditions

Druk 30.06 inches
Zicht 6.2 mijlen
Wolken Gering 1800 ft
Licht bewolkt 3400 ft
Gevoelstemperatuur 49 °F
Dauwpunt 32 °F
Vochtigheid 50%
Neerslag 0.09 inches
Dikte sneeuw Niet beschikbaar.
UV 1.0 van de 12
Pollen Niet beschikbaar.
Luchtkwaliteit Niet beschikbaar.
Flu Activity Niet beschikbaar.
METAR EDDK 011420Z 29025G35KT 9999 VCSH FEW018 SCT034CB 07/M01 Q1018 NOSIG

More Conditions Fewer Conditions

10-Day Weather Forecast

Almanac

Astronomie

Apr. 01, 2015 Opkomst Ondergang
Werkelijke tijd
Burgerlijke schemering
Nautische schemering
Astronomische schemering
Maan
Golflengte van het zichtbare licht
Daglengte
Tomorrow will be .
, % of the Moon is Illuminated

Extremen vandaag

Country Highs Country Lows

Community

WunderPhotos

Upload Photos

1,809,962 foto’s ge-upload!

WunderBlogs® & News

Nearby

Luchtkwaliteit

  Luchtkwaliteit LK-index Verontreinigende stof
Not available.

Dikte sneeuw

Station Depth Geometrische hoogte

Aardbevingen

Stad Distance Mag. Time & Date
Minimum magnitude displayed is 2.5.

Watertemperatuur langs de kust

Plaats Temperatuur

Stations

Nabije weerstations

Locatie station Temp. Gevoelstemperatuur Dauwpunt Vochtigheid Wind Precip. Hoogte Geactualiseerd Type